Argos, Indiana
Current Conditions -  °F | °C
As of 6:35 AM on Friday 19 Dec 2014 (Local Time) from KRCR Reporting Station
Scattered Clouds Scattered Clouds  
Wind Chill: 30°   Ceiling: Unl
Heat Index: 30°   Visibility: 7mi
Dew Point: 27°   Wind: 3mph
Humidity: 86%   Direction: 230°SW
Pressure: 30.26"   Gusts: NA
Location:  41.23°N, 86.24°W
Report Text: KRCR 191135Z AUTO 23003KT 7SM SCT010 SCT016 SCT024 M01/M03 A3026 RMK AO2
Loading
Personal Weather Stations






























Interactive Weather Map New forecast layout! Learn more

10-Day Weather Forecast

Advertisements
Track Severe Weather on mobile